Time;durP1;ratioP1;P1;durP2;ratioP2;P2;SDS_P1;SDS_P2;PMS_P1;PMS_P2;Temp;Humidity;BMP_temperature;BMP_pressure;BME280_temperature;BME280_humidity;BME280_pressure;Samples;Min_cycle;Max_cycle;Signal;HPM_P1;HPM_P2
2022/11/03 00:08:02;;;;;;;4.92;3.65;;;11.90;99.90;;;;;;1943454;72;22098;-88
2022/11/03 00:10:54;;;;;;;6.75;3.80;;;11.80;99.90;;;;;;1907283;75;21052;-88
2022/11/03 00:13:46;;;;;;;6.33;3.58;;;11.80;99.90;;;;;;1888465;75;21572;-87
2022/11/03 00:16:38;;;;;;;6.72;3.70;;;11.80;99.90;;;;;;1895784;75;21091;-87
2022/11/03 00:19:30;;;;;;;5.08;3.75;;;11.80;99.90;;;;;;1884204;75;21125;-88
2022/11/03 00:22:22;;;;;;;7.15;3.90;;;11.70;99.90;;;;;;1896011;75;21090;-88
2022/11/03 00:25:13;;;;;;;5.62;3.17;;;11.70;99.90;;;;;;1890498;75;21040;-88
2022/11/03 00:28:05;;;;;;;4.53;3.58;;;11.70;99.90;;;;;;1873114;75;21119;-87
2022/11/03 00:33:36;;;;;;;5.75;3.50;;;11.70;99.90;;;;;;1945032;72;22572;-89
2022/11/03 00:36:30;;;;;;;8.03;3.70;;;11.80;99.90;;;;;;1916096;74;21124;-88
2022/11/03 00:39:21;;;;;;;6.87;3.30;;;11.70;99.90;;;;;;1905082;75;21056;-88
2022/11/03 00:42:13;;;;;;;6.30;3.55;;;11.80;99.90;;;;;;1913609;74;21060;-88
2022/11/03 00:45:05;;;;;;;5.33;3.65;;;11.80;99.90;;;;;;1914973;74;21070;-87
2022/11/03 00:51:10;;;;;;;5.08;3.37;;;11.80;99.90;;;;;;1905433;75;21124;-88
2022/11/03 00:54:03;;;;;;;6.33;3.35;;;11.70;99.90;;;;;;1910618;74;21073;-88
2022/11/03 00:56:55;;;;;;;5.95;3.70;;;11.70;99.90;;;;;;1901978;74;21067;-87
2022/11/03 00:59:46;;;;;;;5.75;3.80;;;11.60;99.90;;;;;;1911184;74;21059;-89
2022/11/03 01:08:34;;;;;;;7.47;3.77;;;11.80;99.90;;;;;;1892905;75;21163;-87
2022/11/03 01:14:04;;;;;;;5.87;3.30;;;11.50;99.90;;;;;;1946145;72;22238;-88
2022/11/03 01:16:55;;;;;;;5.05;3.45;;;11.50;99.90;;;;;;1920783;74;21110;-87
2022/11/03 01:19:47;;;;;;;4.95;3.20;;;11.50;99.90;;;;;;1938092;74;21072;-87
2022/11/03 01:22:38;;;;;;;6.22;3.58;;;11.50;99.90;;;;;;1939881;73;21104;-87
2022/11/03 01:28:10;;;;;;;4.47;3.10;;;11.40;99.90;;;;;;1931997;72;22268;-86
2022/11/03 01:33:45;;;;;;;5.62;3.30;;;11.40;99.90;;;;;;1955076;72;22183;-88
2022/11/03 01:36:36;;;;;;;4.70;2.90;;;11.40;99.90;;;;;;1903075;75;21090;-89
2022/11/03 01:39:28;;;;;;;4.62;3.05;;;11.40;99.90;;;;;;1899445;75;21046;-87
2022/11/03 01:42:20;;;;;;;4.53;2.85;;;11.40;99.90;;;;;;1905310;75;21094;-87
2022/11/03 01:45:12;;;;;;;3.08;2.75;;;11.30;99.90;;;;;;1898892;75;21059;-87
2022/11/03 01:48:04;;;;;;;4.15;2.95;;;11.30;99.90;;;;;;1902470;75;21136;-87
2022/11/03 01:53:44;;;;;;;5.28;3.02;;;11.20;99.90;;;;;;1956962;72;22134;-86
2022/11/03 01:56:38;;;;;;;4.58;3.02;;;11.20;99.90;;;;;;1905602;74;21107;-86
2022/11/03 02:02:11;;;;;;;5.30;3.00;;;11.10;99.90;;;;;;1954178;72;22275;-86
2022/11/03 02:05:06;;;;;;;5.40;3.33;;;11.10;99.90;;;;;;1917279;74;21048;-89
2022/11/03 02:08:00;;;;;;;5.70;3.55;;;11.20;99.90;;;;;;1905458;75;21112;-87
2022/11/03 02:13:34;;;;;;;7.97;3.08;;;11.10;99.90;;;;;;1957182;72;22115;-88
2022/11/03 02:19:07;;;;;;;6.03;3.40;;;11.20;99.90;;;;;;1935585;72;22723;-86
2022/11/03 02:22:02;;;;;;;5.95;3.37;;;11.10;99.90;;;;;;1893032;75;21112;-88
2022/11/03 02:24:55;;;;;;;5.72;3.67;;;11.10;99.90;;;;;;1883644;75;21059;-87
2022/11/03 02:27:47;;;;;;;6.12;3.60;;;11.00;99.90;;;;;;1880614;75;21543;-87
2022/11/03 02:30:42;;;;;;;4.70;2.80;;;11.10;99.90;;;;;;1895802;75;21131;-87
2022/11/03 02:33:45;;;;;;;5.85;3.08;;;11.10;99.90;;;;;;1896514;75;21055;-87
2022/11/03 02:36:41;;;;;;;5.33;2.83;;;11.10;99.90;;;;;;1873224;75;21120;-88
2022/11/03 02:39:36;;;;;;;6.47;3.10;;;11.10;99.90;;;;;;1895355;75;21436;-87
2022/11/03 02:42:28;;;;;;;5.42;3.22;;;11.10;99.90;;;;;;1896140;75;21060;-87
2022/11/03 02:45:22;;;;;;;4.72;3.40;;;11.00;99.90;;;;;;1873107;75;21062;-87
2022/11/03 02:48:15;;;;;;;5.25;3.22;;;10.90;99.90;;;;;;1885274;75;21153;-87
2022/11/03 02:53:50;;;;;;;4.62;3.02;;;10.70;99.90;;;;;;1958468;72;22295;-88
2022/11/03 02:56:45;;;;;;;3.70;2.83;;;10.60;99.90;;;;;;1905734;74;21167;-86
2022/11/03 02:59:40;;;;;;;5.42;3.20;;;10.60;99.90;;;;;;1915087;74;21090;-88
2022/11/03 03:02:34;;;;;;;5.20;3.25;;;10.70;99.90;;;;;;1905089;75;21201;-87
2022/11/03 03:08:11;;;;;;;4.30;3.05;;;10.80;99.90;;;;;;1937736;72;22127;-86
2022/11/03 03:11:05;;;;;;;9.98;3.98;;;10.80;99.90;;;;;;1879482;75;21133;-86
2022/11/03 03:16:43;;;;;;;5.42;3.15;;;10.80;99.90;;;;;;1931984;72;22759;-88
2022/11/03 03:19:41;;;;;;;5.33;3.47;;;10.80;99.90;;;;;;1902322;75;21067;-87
2022/11/03 03:22:36;;;;;;;4.70;3.25;;;10.80;99.90;;;;;;1890513;75;21077;-87
2022/11/03 03:25:30;;;;;;;5.75;3.10;;;10.80;99.90;;;;;;1874152;75;21114;-87
2022/11/03 03:28:25;;;;;;;5.42;3.17;;;10.70;99.90;;;;;;1887351;75;21089;-87
2022/11/03 03:31:19;;;;;;;4.90;3.00;;;10.70;99.90;;;;;;1888327;75;21141;-86
2022/11/03 03:34:13;;;;;;;3.75;3.12;;;10.70;99.90;;;;;;1892777;75;21118;-87
2022/11/03 03:37:07;;;;;;;5.45;3.20;;;10.70;99.90;;;;;;1890248;75;21143;-86
2022/11/03 03:40:02;;;;;;;5.65;3.25;;;10.70;99.90;;;;;;1875362;75;21113;-87
2022/11/03 03:42:54;;;;;;;3.58;3.00;;;10.60;99.90;;;;;;1879931;75;21114;-87
2022/11/03 03:48:36;;;;;;;5.75;3.45;;;10.60;99.90;;;;;;1961639;72;22123;-87
2022/11/03 03:51:30;;;;;;;4.95;2.85;;;10.70;99.90;;;;;;1921368;74;21503;-87
2022/11/03 03:54:21;;;;;;;6.12;3.15;;;10.70;99.90;;;;;;1905499;75;21083;-87
2022/11/03 03:57:16;;;;;;;6.75;3.55;;;10.70;99.90;;;;;;1928516;74;21117;-87
2022/11/03 04:00:14;;;;;;;4.65;3.08;;;10.70;99.90;;;;;;1905710;74;21147;-87
2022/11/03 04:03:08;;;;;;;5.92;3.05;;;10.60;99.90;;;;;;1924430;74;21126;-87
2022/11/03 04:05:59;;;;;;;6.28;3.15;;;10.50;99.90;;;;;;1905924;74;21116;-86
2022/11/03 04:08:50;;;;;;;4.30;2.83;;;10.60;99.90;;;;;;1910395;74;21047;-87
2022/11/03 04:23:48;;;;;;;8.43;3.35;;;10.40;99.90;;;;;;1944679;72;22676;-88
2022/11/03 04:26:40;;;;;;;6.17;3.40;;;10.40;99.90;;;;;;1924697;74;21180;-87
2022/11/03 04:29:32;;;;;;;6.25;3.47;;;10.40;99.90;;;;;;1925742;74;21094;-86
2022/11/03 04:32:23;;;;;;;5.08;3.65;;;10.40;99.90;;;;;;1916430;74;21043;-87
2022/11/03 04:35:20;;;;;;;5.28;3.30;;;10.40;99.90;;;;;;1913876;74;21029;-88
2022/11/03 04:40:56;;;;;;;4.67;3.15;;;10.40;99.90;;;;;;1960235;72;22055;-88
2022/11/03 04:43:48;;;;;;;4.40;3.15;;;10.40;99.90;;;;;;1917877;75;21072;-88
2022/11/03 04:46:40;;;;;;;4.97;3.52;;;10.30;99.90;;;;;;1930218;73;21108;-87
2022/11/03 04:49:31;;;;;;;5.00;3.20;;;10.20;99.90;;;;;;1914799;73;21090;-88
2022/11/03 04:52:23;;;;;;;4.17;2.90;;;10.20;99.90;;;;;;1943168;73;21090;-86
2022/11/03 04:55:18;;;;;;;4.05;2.70;;;10.20;99.90;;;;;;1917666;75;21086;-87
2022/11/03 05:00:48;;;;;;;7.40;3.20;;;10.10;99.90;;;;;;1937206;72;22147;-86
2022/11/03 05:03:42;;;;;;;4.10;2.70;;;10.10;99.90;;;;;;1903016;75;21046;-89
2022/11/03 05:06:33;;;;;;;4.78;3.50;;;10.20;99.90;;;;;;1887154;75;21173;-88
2022/11/03 05:09:27;;;;;;;6.47;3.08;;;10.20;99.90;;;;;;1899022;75;21048;-87
2022/11/03 05:12:19;;;;;;;4.03;3.10;;;10.20;99.90;;;;;;1883647;75;21059;-87
2022/11/03 05:15:25;;;;;;;4.15;2.60;;;10.20;99.90;;;;;;1886472;75;21127;-87
2022/11/03 05:18:20;;;;;;;3.98;2.87;;;10.20;99.90;;;;;;1879391;75;21048;-87
2022/11/03 05:21:15;;;;;;;3.17;2.60;;;10.10;99.90;;;;;;1890207;75;21043;-88
2022/11/03 05:24:11;;;;;;;4.60;2.83;;;10.10;99.90;;;;;;1887201;75;21048;-87
2022/11/03 05:27:03;;;;;;;4.20;2.85;;;10.10;99.90;;;;;;1878102;75;21059;-88
2022/11/03 05:29:56;;;;;;;3.98;3.00;;;10.10;99.90;;;;;;1891082;75;21110;-87
2022/11/03 05:32:49;;;;;;;6.25;3.50;;;10.10;99.90;;;;;;1905404;75;21103;-87
2022/11/03 05:38:30;;;;;;;5.87;2.80;;;10.10;99.90;;;;;;1931696;72;22107;-89
2022/11/03 05:44:05;;;;;;;3.98;2.90;;;10.10;99.90;;;;;;1955041;72;22130;-88
2022/11/03 05:46:57;;;;;;;5.58;3.22;;;10.20;99.90;;;;;;1917646;73;21067;-87
2022/11/03 05:49:54;;;;;;;4.80;2.80;;;10.10;99.90;;;;;;1907652;74;21103;-87
2022/11/03 05:52:47;;;;;;;3.67;2.72;;;10.20;99.90;;;;;;1906672;74;21056;-87
2022/11/03 05:55:40;;;;;;;3.95;2.52;;;10.20;99.90;;;;;;1905165;75;21099;-88
2022/11/03 05:58:34;;;;;;;4.97;3.17;;;10.20;99.90;;;;;;1921033;74;21126;-87
2022/11/03 06:04:17;;;;;;;5.47;3.42;;;10.10;99.90;;;;;;1923994;72;27962;-88
2022/11/03 06:07:10;;;;;;;;;;;10.20;99.90;;;;;;1888084;75;21113;-87
2022/11/03 06:10:01;;;;;;;5.85;2.50;;;10.10;99.90;;;;;;1895794;75;20127;-86
2022/11/03 06:12:56;;;;;;;3.70;2.95;;;9.90;99.90;;;;;;1901818;75;21150;-87
2022/11/03 06:18:38;;;;;;;7.20;3.05;;;10.00;99.90;;;;;;1948790;72;22188;-88
2022/11/03 06:21:30;;;;;;;3.95;2.83;;;10.00;99.90;;;;;;1920695;74;21095;-86
2022/11/03 06:24:25;;;;;;;5.87;3.20;;;10.00;99.90;;;;;;1856316;75;21117;-87
2022/11/03 06:27:19;;;;;;;4.92;3.15;;;10.10;99.90;;;;;;1931643;74;21047;-86
2022/11/03 06:32:59;;;;;;;7.95;3.58;;;10.20;99.90;;;;;;1950261;73;22135;-89
2022/11/03 06:35:54;;;;;;;7.12;3.27;;;10.20;99.90;;;;;;1896620;75;21110;-87
2022/11/03 06:38:47;;;;;;;6.33;3.67;;;10.20;99.90;;;;;;1887885;75;21093;-88
2022/11/03 06:41:39;;;;;;;6.70;3.52;;;10.30;99.90;;;;;;1899093;75;21113;-87
2022/11/03 06:44:30;;;;;;;4.35;2.70;;;10.30;99.90;;;;;;1885375;75;21563;-89
2022/11/03 06:47:26;;;;;;;5.00;2.83;;;10.30;99.90;;;;;;1890891;75;21114;-88
2022/11/03 06:53:16;;;;;;;3.72;2.67;;;10.30;99.90;;;;;;1941488;72;22307;-87
2022/11/03 06:56:13;;;;;;;5.17;2.80;;;10.30;99.90;;;;;;1908473;74;21071;-83
2022/11/03 06:59:05;;;;;;;4.87;3.02;;;10.30;99.90;;;;;;1904982;74;21145;-83
2022/11/03 07:04:36;;;;;;;4.87;3.33;;;10.30;99.90;;;;;;1947777;72;22181;-85
2022/11/03 07:10:13;;;;;;;4.78;2.60;;;10.30;99.90;;;;;;1946940;72;22146;-85
2022/11/03 07:13:12;;;;;;;4.67;2.80;;;10.40;99.90;;;;;;1916552;74;21084;-85
2022/11/03 07:18:46;;;;;;;4.75;2.83;;;10.40;99.90;;;;;;1936211;72;22243;-83
2022/11/03 07:21:41;;;;;;;5.58;2.83;;;10.50;99.90;;;;;;1897740;75;21060;-83
2022/11/03 07:24:34;;;;;;;4.30;2.85;;;10.50;99.90;;;;;;1901502;75;21108;-84
2022/11/03 07:27:29;;;;;;;4.40;3.12;;;10.50;99.90;;;;;;1912004;75;21113;-84
2022/11/03 07:30:23;;;;;;;6.22;3.35;;;10.60;99.90;;;;;;1884141;75;21089;-83
2022/11/03 07:33:17;;;;;;;4.75;3.35;;;10.60;99.90;;;;;;1904146;75;21366;-85
2022/11/03 07:36:12;;;;;;;5.20;3.35;;;10.80;99.90;;;;;;1912399;73;21159;-85
2022/11/03 07:39:07;;;;;;;4.97;3.72;;;10.90;99.90;;;;;;1897718;75;21103;-83
2022/11/03 07:44:40;;;;;;;4.83;2.83;;;10.90;99.90;;;;;;1949478;72;22665;-86
2022/11/03 07:47:31;;;;;;;5.80;3.20;;;11.00;99.90;;;;;;1909559;75;21109;-83
2022/11/03 07:50:22;;;;;;;5.60;3.70;;;11.00;99.90;;;;;;1885317;75;21674;-83
2022/11/03 07:53:17;;;;;;;5.55;3.25;;;11.00;99.90;;;;;;1884614;75;21058;-84
2022/11/03 07:56:18;;;;;;;9.83;3.25;;;11.10;99.90;;;;;;1905097;75;21121;-84
2022/11/03 07:59:17;;;;;;;8.55;3.10;;;11.20;99.90;;;;;;1889148;75;21059;-84
2022/11/03 08:02:16;;;;;;;4.33;3.60;;;11.30;99.90;;;;;;1908044;75;21153;-83
2022/11/03 08:05:08;;;;;;;6.00;3.30;;;11.30;99.90;;;;;;1884856;75;21363;-83
2022/11/03 08:07:59;;;;;;;5.92;3.70;;;11.30;99.90;;;;;;1884504;76;21110;-85
2022/11/03 08:13:32;;;;;;;11.35;3.92;;;11.60;99.90;;;;;;1941093;72;22137;-84
2022/11/03 08:16:24;;;;;;;5.85;3.30;;;11.70;99.90;;;;;;1898287;75;21059;-84
2022/11/03 08:19:15;;;;;;;8.73;3.02;;;11.70;99.90;;;;;;1893979;75;21125;-83
2022/11/03 08:24:46;;;;;;;3.98;3.15;;;11.60;99.90;;;;;;1947296;72;22284;-84
2022/11/03 08:27:38;;;;;;;9.08;3.50;;;11.70;99.90;;;;;;1902932;75;21118;-84
2022/11/03 08:33:10;;;;;;;7.12;3.22;;;12.10;99.90;;;;;;1945458;72;22170;-82
2022/11/03 08:36:05;;;;;;;6.35;3.40;;;12.20;99.90;;;;;;1897317;75;21066;-84
2022/11/03 08:38:56;;;;;;;4.83;3.00;;;12.10;99.90;;;;;;1884726;75;21145;-83
2022/11/03 08:44:26;;;;;;;4.87;2.95;;;12.30;99.90;;;;;;1942208;72;22355;-84
2022/11/03 08:47:17;;;;;;;4.85;3.08;;;12.40;99.90;;;;;;1911274;74;21054;-83
2022/11/03 08:50:09;;;;;;;5.78;3.00;;;12.60;99.90;;;;;;1901551;74;21183;-83
2022/11/03 08:55:40;;;;;;;7.10;3.90;;;12.80;99.90;;;;;;1951785;72;22212;-85
2022/11/03 08:58:31;;;;;;;7.67;3.45;;;12.90;99.90;;;;;;1938902;73;21102;-85
2022/11/03 09:01:23;;;;;;;6.75;3.20;;;13.00;99.90;;;;;;1934209;73;21156;-84
2022/11/03 09:04:15;;;;;;;6.25;3.62;;;13.00;99.90;;;;;;1939186;73;21128;-83
2022/11/03 09:07:06;;;;;;;7.80;3.80;;;13.00;99.90;;;;;;1924235;73;21059;-85
2022/11/03 09:09:58;;;;;;;8.55;3.95;;;12.90;99.90;;;;;;1938655;73;21478;-85
2022/11/03 09:12:51;;;;;;;5.35;3.25;;;12.80;99.90;;;;;;1935290;73;21047;-84
2022/11/03 09:15:43;;;;;;;5.08;3.47;;;12.70;99.90;;;;;;1938706;73;21065;-83
2022/11/03 09:18:34;;;;;;;5.50;3.40;;;12.70;99.90;;;;;;1941034;73;21160;-84
2022/11/03 09:21:26;;;;;;;4.45;3.58;;;12.80;99.90;;;;;;1925805;73;21049;-83
2022/11/03 09:24:17;;;;;;;5.05;3.30;;;12.90;99.90;;;;;;1937448;73;21035;-85
2022/11/03 09:27:08;;;;;;;3.58;2.95;;;13.00;99.90;;;;;;1898432;74;21116;-83
2022/11/03 09:29:59;;;;;;;5.55;3.65;;;13.10;99.90;;;;;;1927416;73;21042;-83
2022/11/03 09:32:52;;;;;;;5.95;3.72;;;13.10;99.90;;;;;;1940660;73;21159;-84
2022/11/03 09:38:26;;;;;;;7.85;3.02;;;13.60;99.90;;;;;;1932932;72;22145;-84
2022/11/03 09:41:17;;;;;;;6.85;4.05;;;13.80;99.90;;;;;;1901398;75;21172;-84
2022/11/03 09:44:11;;;;;;;9.50;3.90;;;13.80;99.90;;;;;;1881461;75;21200;-84
2022/11/03 09:47:03;;;;;;;10.40;3.67;;;13.90;99.90;;;;;;1904753;75;21137;-84
2022/11/03 09:49:55;;;;;;;6.05;3.30;;;14.10;99.90;;;;;;1897171;75;21156;-83
2022/11/03 09:55:26;;;;;;;7.47;4.35;;;14.30;99.90;;;;;;1936331;72;22242;-85
2022/11/03 09:58:18;;;;;;;8.48;4.87;;;14.20;99.90;;;;;;1936377;73;21145;-83
2022/11/03 10:01:11;;;;;;;7.25;4.97;;;14.30;99.90;;;;;;1874940;75;21230;-83
2022/11/03 10:04:03;;;;;;;11.65;4.78;;;14.30;99.90;;;;;;1894732;75;21055;-83
2022/11/03 10:06:55;;;;;;;10.75;4.90;;;14.40;99.90;;;;;;1888557;75;21100;-83
2022/11/03 10:09:48;;;;;;;12.53;4.42;;;14.50;99.90;;;;;;1882090;75;21154;-84
2022/11/03 10:12:40;;;;;;;7.40;4.60;;;14.50;99.90;;;;;;1893456;73;21167;-83
2022/11/03 10:18:10;;;;;;;6.25;3.95;;;14.60;99.90;;;;;;1947197;72;22139;-83
2022/11/03 10:21:05;;;;;;;5.90;3.80;;;14.50;99.90;;;;;;1905452;74;21113;-83
2022/11/03 10:23:56;;;;;;;6.47;3.40;;;14.40;99.90;;;;;;1886833;75;21145;-83
2022/11/03 10:29:28;;;;;;;4.47;3.20;;;14.30;99.90;;;;;;1936076;72;22326;-82
2022/11/03 10:32:33;;;;;;;6.72;3.77;;;14.20;99.90;;;;;;1911293;75;21184;-85
2022/11/03 10:38:29;;;;;;;6.95;3.42;;;13.90;99.90;;;;;;1932493;72;22149;-85
2022/11/03 10:41:22;;;;;;;6.70;3.33;;;13.90;99.90;;;;;;1894698;75;21088;-86
2022/11/03 10:44:19;;;;;;;6.22;3.27;;;13.80;99.90;;;;;;1889624;75;21097;-85
2022/11/03 10:47:21;;;;;;;8.40;3.93;;;13.70;99.90;;;;;;1901179;74;21062;-84
2022/11/03 10:50:25;;;;;;;7.10;3.35;;;13.60;99.90;;;;;;1884650;75;21110;-83
2022/11/03 10:53:19;;;;;;;14.30;3.80;;;13.50;99.90;;;;;;1887960;75;21536;-84
2022/11/03 10:58:50;;;;;;;6.22;3.85;;;13.40;99.90;;;;;;1952855;72;22582;-85
2022/11/03 11:04:22;;;;;;;7.58;3.87;;;13.40;99.90;;;;;;1930994;72;22157;-85
2022/11/03 11:07:26;;;;;;;5.65;3.12;;;13.40;99.90;;;;;;1899694;75;21129;-84
2022/11/03 11:10:20;;;;;;;4.92;3.50;;;13.40;99.90;;;;;;1901646;75;21128;-84
2022/11/03 11:13:29;;;;;;;8.40;3.77;;;13.60;99.90;;;;;;1882962;75;21129;-84
2022/11/03 11:19:53;;;;;;;6.62;3.92;;;13.60;99.90;;;;;;1934790;72;22732;-86
2022/11/03 11:22:44;;;;;;;7.15;3.95;;;13.50;99.90;;;;;;1898100;75;21161;-84
2022/11/03 11:26:14;;;;;;;6.33;3.45;;;13.60;99.90;;;;;;1913341;75;21230;-84
2022/11/03 11:29:47;;;;;;;8.85;3.15;;;13.50;99.90;;;;;;1905027;75;21553;-84
2022/11/03 11:32:59;;;;;;;8.65;4.33;;;13.50;99.90;;;;;;1891982;75;21066;-84
2022/11/03 11:36:26;;;;;;;7.05;4.35;;;13.60;99.90;;;;;;1900587;75;21098;-85
2022/11/03 11:39:44;;;;;;;8.83;4.28;;;13.50;99.90;;;;;;1902734;75;21068;-85
2022/11/03 11:42:37;;;;;;;5.92;3.92;;;13.50;99.90;;;;;;1909800;75;21115;-85
2022/11/03 11:46:05;;;;;;;5.95;3.27;;;13.40;99.90;;;;;;1915257;75;21615;-84
2022/11/03 11:49:17;;;;;;;9.08;6.30;;;13.30;99.90;;;;;;1913562;75;21063;-84
2022/11/03 11:52:10;;;;;;;9.35;4.55;;;13.30;99.90;;;;;;1821433;78;21128;-84
2022/11/03 11:55:02;;;;;;;8.50;4.67;;;13.30;99.90;;;;;;1904572;75;21479;-84
2022/11/03 11:57:55;;;;;;;6.85;4.60;;;13.10;99.90;;;;;;1917860;74;21113;-84
2022/11/03 12:03:39;;;;;;;7.80;4.17;;;13.10;99.90;;;;;;1936002;72;22141;-85
2022/11/03 12:09:19;;;;;;;7.67;4.35;;;13.10;99.90;;;;;;1949257;72;22114;-85
2022/11/03 12:12:10;;;;;;;6.60;4.10;;;13.10;99.90;;;;;;1929661;73;21167;-84
2022/11/03 12:15:01;;;;;;;8.73;4.92;;;13.20;99.90;;;;;;1933973;73;21051;-84
2022/11/03 12:17:53;;;;;;;7.25;4.53;;;13.20;99.90;;;;;;1923942;73;21525;-84
2022/11/03 12:23:40;;;;;;;7.22;4.58;;;13.20;99.90;;;;;;1944136;72;22734;-85
2022/11/03 12:29:30;;;;;;;7.55;5.40;;;13.20;99.90;;;;;;1946566;72;22223;-85
2022/11/03 12:32:21;;;;;;;9.60;5.55;;;13.30;99.90;;;;;;1932659;73;21160;-85
2022/11/03 12:35:14;;;;;;;11.05;4.62;;;13.30;99.90;;;;;;1917338;75;21077;-84
2022/11/03 12:38:06;;;;;;;6.58;4.47;;;13.30;99.90;;;;;;1928728;73;21086;-84
2022/11/03 12:43:35;;;;;;;8.75;4.50;;;13.20;99.90;;;;;;1936299;72;22822;-86
2022/11/03 12:46:27;;;;;;;13.70;4.65;;;13.10;99.90;;;;;;1904567;75;21158;-84
2022/11/03 12:49:18;;;;;;;7.20;4.12;;;13.10;99.90;;;;;;1881876;75;21059;-85
2022/11/03 12:52:10;;;;;;;5.83;3.80;;;13.10;99.90;;;;;;1907237;75;21192;-85
2022/11/03 12:55:02;;;;;;;6.78;3.72;;;13.20;99.90;;;;;;1884650;75;21490;-85
2022/11/03 12:57:53;;;;;;;6.90;3.87;;;13.20;99.90;;;;;;1906626;75;21153;-85
2022/11/03 13:00:45;;;;;;;5.60;3.87;;;13.30;99.90;;;;;;1889742;75;21187;-84
2022/11/03 13:03:39;;;;;;;6.03;3.22;;;13.30;99.90;;;;;;1895699;75;21118;-84
2022/11/03 13:06:30;;;;;;;4.58;2.90;;;13.30;99.90;;;;;;1900661;75;21562;-85
2022/11/03 13:09:21;;;;;;;5.22;3.10;;;13.40;99.90;;;;;;1884765;76;21055;-85
2022/11/03 13:12:33;;;;;;;6.37;3.60;;;13.40;99.90;;;;;;1906729;75;21059;-85
2022/11/03 13:15:25;;;;;;;5.47;3.47;;;13.40;99.90;;;;;;1907119;75;21091;-84
2022/11/03 13:18:16;;;;;;;8.40;5.22;;;13.40;99.90;;;;;;1906871;75;21076;-84
2022/11/03 13:21:09;;;;;;;7.40;4.45;;;13.30;99.90;;;;;;1901902;75;21106;-84
2022/11/03 13:24:00;;;;;;;8.48;3.55;;;13.30;99.90;;;;;;1897139;75;21111;-84
2022/11/03 13:26:51;;;;;;;6.17;3.62;;;13.30;99.90;;;;;;1895693;75;21079;-84
2022/11/03 13:29:42;;;;;;;5.45;2.90;;;13.30;99.90;;;;;;1895483;75;21062;-84
2022/11/03 13:32:34;;;;;;;4.05;2.72;;;13.40;99.90;;;;;;1899402;75;21157;-85
2022/11/03 13:35:25;;;;;;;3.77;2.47;;;13.50;99.90;;;;;;1897636;75;21047;-85
2022/11/03 13:38:17;;;;;;;4.33;3.05;;;13.60;99.90;;;;;;1887336;75;21117;-85
2022/11/03 13:41:08;;;;;;;6.37;3.50;;;13.70;99.90;;;;;;1884686;76;21066;-85
2022/11/03 13:44:00;;;;;;;5.80;2.65;;;13.70;99.90;;;;;;1912235;74;21151;-83
2022/11/03 13:46:52;;;;;;;3.85;2.80;;;13.80;99.90;;;;;;1909275;74;21054;-84
2022/11/03 13:49:44;;;;;;;6.12;2.37;;;13.80;99.90;;;;;;1905001;74;21085;-84
2022/11/03 13:52:37;;;;;;;4.53;3.25;;;13.90;99.90;;;;;;1900328;74;21126;-85
2022/11/03 13:55:28;;;;;;;7.60;3.70;;;13.80;99.90;;;;;;1893717;74;21147;-84
2022/11/03 13:58:21;;;;;;;6.10;3.40;;;13.80;99.90;;;;;;1909381;74;21122;-85
2022/11/03 14:01:16;;;;;;;5.17;3.20;;;13.70;99.90;;;;;;1905204;74;21160;-85
2022/11/03 14:04:08;;;;;;;5.08;3.60;;;13.70;99.90;;;;;;1904816;74;21138;-85
2022/11/03 14:07:00;;;;;;;6.65;3.62;;;13.70;99.90;;;;;;1902309;74;21498;-85
2022/11/03 14:09:51;;;;;;;4.90;3.33;;;13.60;99.90;;;;;;1912582;74;21055;-84
2022/11/03 14:12:44;;;;;;;4.95;3.67;;;13.60;99.90;;;;;;1907707;74;21183;-85
2022/11/03 14:15:35;;;;;;;4.97;3.17;;;13.60;99.90;;;;;;1896093;74;21087;-85
2022/11/03 14:18:27;;;;;;;4.33;3.45;;;13.60;99.90;;;;;;1893453;74;21176;-84
2022/11/03 14:21:18;;;;;;;5.28;3.62;;;13.50;99.90;;;;;;1913078;74;21175;-84
2022/11/03 14:24:10;;;;;;;4.75;3.40;;;13.50;99.90;;;;;;1893615;74;21054;-84
2022/11/03 14:27:02;;;;;;;4.05;3.52;;;13.50;99.90;;;;;;1902877;74;21051;-84
2022/11/03 14:29:53;;;;;;;5.50;4.10;;;13.50;99.90;;;;;;1904613;74;21179;-85
2022/11/03 14:32:44;;;;;;;6.15;3.90;;;13.60;99.90;;;;;;1906623;74;21098;-84
2022/11/03 14:35:35;;;;;;;5.12;3.47;;;13.60;99.90;;;;;;1908585;74;21087;-86
2022/11/03 14:38:27;;;;;;;5.92;4.12;;;13.60;99.90;;;;;;1904376;74;21051;-84
2022/11/03 14:44:35;;;;;;;8.53;4.30;;;13.50;99.90;;;;;;1905697;74;21066;-84
2022/11/03 14:47:30;;;;;;;6.85;4.17;;;13.40;99.90;;;;;;1884237;76;21118;-84
2022/11/03 14:50:31;;;;;;;7.58;4.10;;;13.40;99.90;;;;;;1900612;75;21094;-84
2022/11/03 14:53:27;;;;;;;7.12;3.98;;;13.40;99.90;;;;;;1907490;74;21124;-85
2022/11/03 14:56:25;;;;;;;6.58;3.67;;;13.50;99.90;;;;;;1905956;75;21585;-85
2022/11/03 14:59:22;;;;;;;3.98;3.02;;;13.40;99.90;;;;;;1911584;75;21076;-84
2022/11/03 15:02:18;;;;;;;5.80;3.80;;;13.50;99.90;;;;;;1894927;75;21149;-85
2022/11/03 15:05:42;;;;;;;7.58;4.65;;;13.50;99.90;;;;;;1895925;75;21133;-84
2022/11/03 15:08:09;;;;;;;7.17;4.62;;;13.50;99.90;;;;;;1884337;76;21127;-84
2022/11/03 15:11:04;;;;;;;8.20;4.62;;;13.50;99.90;;;;;;1868304;76;21149;-86
2022/11/03 15:14:02;;;;;;;6.90;4.20;;;13.40;99.90;;;;;;1914837;75;21124;-84
2022/11/03 15:16:58;;;;;;;7.78;4.92;;;13.40;99.90;;;;;;1895184;75;21157;-84
2022/11/03 15:19:53;;;;;;;11.30;4.67;;;13.40;99.90;;;;;;1895372;75;21172;-83
2022/11/03 15:22:47;;;;;;;7.10;4.95;;;13.40;99.90;;;;;;1899289;75;21059;-84
2022/11/03 15:25:41;;;;;;;8.40;4.53;;;13.30;99.90;;;;;;1897632;75;21619;-85
2022/11/03 15:28:41;;;;;;;10.55;5.15;;;13.30;99.90;;;;;;1895108;75;21151;-84
2022/11/03 15:31:35;;;;;;;10.50;6.72;;;13.30;99.90;;;;;;1890104;75;21105;-84
2022/11/03 15:34:32;;;;;;;10.45;7.12;;;13.30;99.90;;;;;;1906089;75;21534;-84
2022/11/03 15:37:24;;;;;;;7.37;5.15;;;13.20;99.90;;;;;;1866824;76;21080;-83
2022/11/03 15:40:17;;;;;;;6.60;4.70;;;13.30;99.90;;;;;;1897577;75;21509;-83
2022/11/03 15:43:13;;;;;;;6.92;4.78;;;13.30;99.90;;;;;;1895141;75;21154;-84
2022/11/03 15:46:09;;;;;;;8.50;5.20;;;13.30;99.90;;;;;;1884579;74;21115;-83
2022/11/03 15:49:03;;;;;;;6.28;4.75;;;13.30;99.90;;;;;;1904098;75;21556;-84
2022/11/03 15:51:55;;;;;;;7.10;4.45;;;13.30;99.90;;;;;;1879535;75;21095;-84
2022/11/03 15:55:17;;;;;;;7.67;4.62;;;13.20;99.90;;;;;;1900025;75;21210;-84
2022/11/03 15:58:09;;;;;;;6.45;4.40;;;13.20;99.90;;;;;;1876311;75;21065;-83
2022/11/03 16:01:03;;;;;;;6.33;4.30;;;13.30;99.90;;;;;;1871673;75;21646;-83
2022/11/03 16:03:58;;;;;;;8.20;4.80;;;13.20;99.90;;;;;;1905667;75;21126;-83
2022/11/03 16:06:57;;;;;;;6.42;4.30;;;13.20;99.90;;;;;;1905625;75;21091;-83
2022/11/03 16:09:54;;;;;;;7.40;4.75;;;13.20;99.90;;;;;;1902611;75;21169;-83
2022/11/03 16:12:53;;;;;;;6.70;4.55;;;13.20;99.90;;;;;;1898575;75;21098;-85
2022/11/03 16:15:49;;;;;;;6.85;4.65;;;13.20;99.90;;;;;;1894635;75;21525;-84
2022/11/03 16:18:44;;;;;;;5.50;4.37;;;13.20;99.90;;;;;;1888198;75;21105;-84
2022/11/03 16:21:39;;;;;;;6.72;4.33;;;13.20;99.90;;;;;;1890326;75;21132;-84
2022/11/03 16:24:34;;;;;;;6.55;4.72;;;13.20;99.90;;;;;;1897068;75;21133;-84
2022/11/03 16:27:29;;;;;;;5.72;4.60;;;13.20;99.90;;;;;;1899306;75;21117;-85
2022/11/03 16:30:29;;;;;;;6.97;5.03;;;13.20;99.90;;;;;;1883901;75;21094;-84
2022/11/03 16:33:26;;;;;;;8.65;5.40;;;13.20;99.90;;;;;;1892238;75;21491;-83
2022/11/03 16:36:19;;;;;;;7.58;5.12;;;13.30;99.90;;;;;;1886600;75;21149;-85
2022/11/03 16:39:25;;;;;;;5.72;4.80;;;13.30;99.90;;;;;;1882633;75;21245;-83
2022/11/03 16:42:22;;;;;;;12.40;8.40;;;13.20;99.90;;;;;;1892307;75;21117;-84
2022/11/03 16:45:20;;;;;;;8.15;5.42;;;13.20;99.90;;;;;;1852510;75;21230;-84
2022/11/03 16:48:16;;;;;;;8.50;5.28;;;13.10;99.90;;;;;;1912389;74;21052;-84
2022/11/03 16:51:10;;;;;;;8.38;5.97;;;13.10;99.90;;;;;;1908693;74;21546;-84
2022/11/03 16:54:07;;;;;;;8.65;4.97;;;13.10;99.90;;;;;;1922142;74;21115;-84
2022/11/03 16:57:00;;;;;;;6.65;5.70;;;13.10;99.90;;;;;;1921427;74;21054;-84
2022/11/03 16:59:59;;;;;;;5.65;4.97;;;13.10;99.90;;;;;;1916148;74;21095;-84
2022/11/03 17:02:53;;;;;;;6.65;5.15;;;13.10;99.90;;;;;;1899863;75;21094;-84
2022/11/03 17:05:50;;;;;;;7.62;5.37;;;13.10;99.90;;;;;;1922252;74;21066;-85
2022/11/03 17:08:46;;;;;;;7.72;5.20;;;13.10;99.90;;;;;;1922061;74;21182;-84
2022/11/03 17:11:45;;;;;;;5.70;4.90;;;13.10;99.90;;;;;;1921450;74;21163;-84
2022/11/03 17:14:39;;;;;;;7.65;5.35;;;13.00;99.90;;;;;;1915470;74;21057;-85
2022/11/03 17:17:40;;;;;;;7.95;5.22;;;13.00;99.90;;;;;;1913645;74;21120;-85
2022/11/03 17:20:37;;;;;;;7.25;5.40;;;13.10;99.90;;;;;;1910372;74;21083;-84
2022/11/03 17:23:32;;;;;;;6.20;4.95;;;13.10;99.90;;;;;;1927266;74;21149;-83
2022/11/03 17:26:30;;;;;;;7.22;4.95;;;13.00;99.90;;;;;;1921950;74;21047;-83
2022/11/03 17:29:31;;;;;;;6.58;4.92;;;13.00;99.90;;;;;;1899893;74;21058;-85
2022/11/03 17:32:27;;;;;;;6.10;5.20;;;13.00;99.90;;;;;;1916369;74;21051;-84